This is the latest recevied weather packets stored in our database for station/object K2MRS. If no packets are shown the sender has not sent any weather packets the latest 1 day(s).
| Time | Temp. | Humidity | Pressure | Rain* | Wind** | Luminosity | Snow |
|---|---|---|---|---|---|---|---|
| 1778013416 | 16.67° C | 76% | 1016.7 hPa | 0 mm | 0 m/s | 439 W/m² | - |
| 1778013116 | 16.11° C | 76% | 1016.6 hPa | 0 mm | 0 m/s | 527 W/m² | - |
| 1778012944 | 16.11° C | 77% | 1016.7 hPa | 0 mm | 0 m/s | 631 W/m² | - |
| 1778012514 | 15.56° C | 79% | 1016.7 hPa | 0 mm | 0 m/s | 661 W/m² | - |
| 1778012213 | 15.56° C | 80% | 1016.7 hPa | 0 mm | 0 m/s | 671 W/m² | - |
| 1778011927 | 15.56° C | 81% | 1016.9 hPa | 0 mm | 0 m/s | 362 W/m² | - |
| 1778011613 | 15° C | 82% | 1016.8 hPa | 0 mm | 0 m/s | 411 W/m² | - |
| 1778011314 | 15° C | 82% | 1016.9 hPa | 0 mm | 0 m/s | 350 W/m² | - |
| 1778011016 | 15° C | 82% | 1016.8 hPa | 0 mm | 0 m/s | 320 W/m² | - |
| 1778010713 | 14.44° C | 81% | 1016.8 hPa | 0 mm | 0 m/s | 262 W/m² | - |
| 1778010413 | 14.44° C | 82% | 1016.8 hPa | 0 mm | 0 m/s | 251 W/m² | - |
| 1778010114 | 15° C | 81% | 1016.8 hPa | 0 mm | 0 m/s | 253 W/m² | - |
| 1778009814 | 15° C | 80% | 1016.8 hPa | 0 mm | 0 m/s | 257 W/m² | - |
| 1778009514 | 15° C | 80% | 1016.8 hPa | 0 mm | 0 m/s | 244 W/m² | - |
| 1778009213 | 15° C | 80% | 1016.8 hPa | 0 mm | 0 m/s | 216 W/m² | - |
| 1778008914 | 15.56° C | 80% | 1016.9 hPa | 0 mm | 0 m/s | 174 W/m² | - |
| 1778008613 | 15.56° C | 79% | 1016.8 hPa | 0 mm | 0 m/s | 174 W/m² | - |
| 1778008312 | 15.56° C | 80% | 1016.8 hPa | 0 mm | 0 m/s | 197 W/m² | - |
| 1778008012 | 15.56° C | 79% | 1016.8 hPa | 0 mm | 0 m/s | 343 W/m² | - |
| 1778007709 | 15.56° C | 80% | 1016.8 hPa | 0 mm | 0 m/s | 297 W/m² | - |
| 1778007537 | 15.56° C | 81% | 1016.7 hPa | 0 mm | 0 m/s | 367 W/m² | - |
| 1778007109 | 15° C | 81% | 1016.8 hPa | 0 mm | 0 m/s | 316 W/m² | - |
| 1778006810 | 15° C | 81% | 1016.6 hPa | 0 mm | 0 m/s | 369 W/m² | - |
| 1778006509 | 14.44° C | 82% | 1016.3 hPa | 0 mm | 0 m/s | 777 W/m² | - |
| 1778006210 | 14.44° C | 84% | 1016.7 hPa | 0 mm | 0 m/s | 390 W/m² | - |
* Rain latest hour (hover to see other rain measurements)
** Current wind speed in m/s (hover to see current wind gust speed)